createdAt,value
2018-10-18T00:04:15.587Z,89.300003
2018-10-18T00:09:17.789Z,89.800003
2018-10-18T00:14:20.143Z,90.5
2018-10-18T00:19:22.467Z,91
2018-10-18T00:24:24.707Z,90.699997
2018-10-18T00:29:27.011Z,90.300003
2018-10-18T00:34:29.241Z,90.400002
2018-10-18T00:39:31.765Z,90.300003
2018-10-18T00:44:33.863Z,90
2018-10-18T00:49:36.141Z,89.599998
2018-10-18T00:54:38.550Z,89.599998
2018-10-18T00:59:40.785Z,89.699997
2018-10-18T01:04:43.006Z,89.900002
2018-10-18T01:09:45.397Z,90.400002
2018-10-18T01:14:48.713Z,90.900002
2018-10-18T01:19:49.906Z,91.099998
2018-10-18T01:24:52.282Z,91.099998
2018-10-18T01:29:54.641Z,91.199997
2018-10-18T01:34:56.829Z,91.300003
2018-10-18T01:39:59.118Z,91.800003
2018-10-18T01:45:01.474Z,92.599998
2018-10-18T01:50:03.848Z,92.699997
2018-10-18T01:55:06.044Z,93.199997
2018-10-18T02:00:08.289Z,93.699997
2018-10-18T02:05:10.779Z,93.599998
2018-10-18T02:10:12.855Z,94.400002
2018-10-18T02:15:15.243Z,94
2018-10-18T02:20:17.420Z,94.5
2018-10-18T02:25:19.913Z,95.300003
2018-10-18T02:30:22.340Z,96.300003
2018-10-18T02:35:24.300Z,95.800003
2018-10-18T02:40:26.585Z,95.800003
2018-10-18T02:45:28.903Z,96.900002
2018-10-18T02:50:31.282Z,97
2018-10-18T02:55:33.719Z,96.400002
2018-10-18T03:00:36.074Z,96.400002
2018-10-18T03:05:38.171Z,96.099998
2018-10-18T03:10:40.468Z,96.699997
2018-10-18T03:20:45.073Z,99.800003
2018-10-18T03:25:47.329Z,99.900002
2018-10-18T03:30:49.579Z,99.099998
2018-10-18T03:35:52.019Z,99.199997
2018-10-18T03:40:54.263Z,98.599998
2018-10-18T03:45:56.463Z,98.300003
2018-10-18T03:50:58.849Z,98.5
2018-10-18T03:56:01.029Z,97.699997
2018-10-18T04:01:03.409Z,97.5
2018-10-18T04:06:05.870Z,96.5
2018-10-18T04:11:07.948Z,97
2018-10-18T04:16:10.235Z,97.800003
2018-10-18T04:21:12.552Z,98.099998
2018-10-18T04:26:14.943Z,97.800003
2018-10-18T04:31:18.293Z,97.900002
2018-10-18T04:36:21.250Z,99.900002
2018-10-18T04:41:21.821Z,99.900002
2018-10-18T04:46:24.074Z,99.699997
2018-10-18T04:51:26.279Z,99.300003
2018-10-18T04:56:28.580Z,99.400002
2018-10-18T05:01:30.901Z,99.400002
2018-10-18T05:06:33.172Z,99.300003
2018-10-18T05:11:35.487Z,99.099998
2018-10-18T05:16:37.804Z,99.900002
2018-10-18T05:21:40.092Z,99.900002
2018-10-18T05:26:42.405Z,99.900002
2018-10-18T05:31:44.705Z,99.199997
2018-10-18T05:36:47.035Z,99.199997
2018-10-18T05:41:50.308Z,98.5
2018-10-18T05:51:53.788Z,99.900002
2018-10-18T05:56:56.172Z,99.900002
2018-10-18T06:01:58.480Z,99.900002
2018-10-18T06:07:00.752Z,99.900002
2018-10-18T06:12:03.006Z,99.900002
2018-10-18T06:17:05.352Z,99.900002
2018-10-18T06:22:07.664Z,99.900002
2018-10-18T06:27:09.927Z,99.900002
2018-10-18T06:32:12.171Z,99.900002
2018-10-18T06:37:14.541Z,99.900002
2018-10-18T06:42:16.781Z,99.900002
2018-10-18T06:47:19.092Z,99.900002
2018-10-18T06:52:21.466Z,99.900002
2018-10-18T06:57:23.640Z,99.900002
2018-10-18T07:02:25.915Z,99.900002
2018-10-18T07:07:28.334Z,99.900002
2018-10-18T07:12:30.468Z,99.900002
2018-10-18T07:17:32.880Z,99.900002
2018-10-18T07:22:35.213Z,99.900002
2018-10-18T07:27:37.366Z,99.900002
2018-10-18T07:32:39.676Z,99.900002
2018-10-18T07:37:41.987Z,99.900002
2018-10-18T07:42:44.413Z,99.900002
2018-10-18T07:47:47.623Z,99.900002
2018-10-18T07:52:50.110Z,99.900002
2018-10-18T07:57:51.196Z,99.900002
2018-10-18T08:02:53.544Z,99.900002
2018-10-18T08:07:55.781Z,99.900002
2018-10-18T08:12:58.205Z,98.199997
2018-10-18T08:18:00.308Z,97.699997
2018-10-18T08:23:02.671Z,96.599998
2018-10-18T08:28:04.985Z,93.900002
2018-10-18T08:33:07.213Z,92.300003
2018-10-18T08:38:09.599Z,90.400002
2018-10-18T08:43:12.048Z,88.599998
2018-10-18T08:48:14.219Z,90.5
2018-10-18T08:53:20.661Z,93.199997
2018-10-18T08:58:18.836Z,91.199997
2018-10-18T09:03:20.979Z,88.900002
2018-10-18T09:08:23.365Z,89.699997
2018-10-18T09:13:25.564Z,85.5
2018-10-18T09:18:27.928Z,84.900002
2018-10-18T09:23:30.279Z,80
2018-10-18T09:28:32.447Z,81.5
2018-10-18T09:33:34.798Z,82.400002
2018-10-18T09:38:37.036Z,80
2018-10-18T09:43:39.333Z,78
2018-10-18T09:48:41.686Z,78.699997
2018-10-18T09:53:45.011Z,80.800003
2018-10-18T09:58:46.252Z,82.300003
2018-10-18T10:03:48.523Z,83.199997
2018-10-18T10:08:52.082Z,84.5
2018-10-18T10:13:54.633Z,85.599998
2018-10-18T10:18:55.412Z,88
2018-10-18T10:23:57.759Z,83.599998
2018-10-18T10:28:59.982Z,75.599998
2018-10-18T10:34:02.309Z,71.199997
2018-10-18T10:39:06.098Z,69.800003
2018-10-18T10:44:07.026Z,69.199997
2018-10-18T10:49:09.252Z,72.599998
2018-10-18T10:54:11.666Z,68.5
2018-10-18T10:59:13.860Z,67.900002
2018-10-18T11:04:16.066Z,70.800003
2018-10-18T11:09:18.442Z,70.5
2018-10-18T11:14:20.674Z,73.400002
2018-10-18T11:19:22.920Z,72.400002
2018-10-18T11:24:25.292Z,73.5
2018-10-18T11:29:27.508Z,73.599998
2018-10-18T11:34:29.881Z,75.900002
2018-10-18T11:39:32.198Z,73.599998
2018-10-18T11:44:34.376Z,72.400002
2018-10-18T11:49:36.671Z,72.599998
2018-10-18T11:54:38.996Z,72.5
2018-10-18T11:59:41.421Z,70
2018-10-18T12:04:43.624Z,69.099998
2018-10-18T12:09:45.863Z,67.599998
2018-10-18T12:14:48.304Z,64.199997
2018-10-18T12:19:50.466Z,63
2018-10-18T12:24:52.820Z,62.799999
2018-10-18T12:29:55.265Z,62.099998
2018-10-18T12:34:58.595Z,63.400002
2018-10-18T12:40:02.069Z,65.5
2018-10-18T12:45:02.074Z,65.300003
2018-10-18T12:50:04.306Z,64.699997
2018-10-18T12:55:06.594Z,65.599998
2018-10-18T13:00:08.957Z,65.199997
2018-10-18T13:05:11.210Z,65.5
2018-10-18T13:10:13.419Z,66.699997
2018-10-18T13:15:15.727Z,63.799999
2018-10-18T13:20:18.151Z,63.299999
2018-10-18T13:25:20.371Z,63.5
2018-10-18T13:30:22.583Z,64.099998
2018-10-18T13:35:24.859Z,64.300003
2018-10-18T13:40:27.192Z,65.800003
2018-10-18T13:45:29.586Z,66.099998
2018-10-18T13:50:31.803Z,66.400002
2018-10-18T13:55:34.061Z,67.400002
2018-10-18T14:00:37.413Z,66.900002
2018-10-18T14:05:40.527Z,66.199997
2018-10-18T14:10:40.893Z,65.900002
2018-10-18T14:15:44.399Z,66.5
2018-10-18T14:20:45.536Z,66.300003
2018-10-18T14:25:47.837Z,66.099998
2018-10-18T14:30:50.221Z,65.199997
2018-10-18T14:35:52.432Z,65.599998
2018-10-18T14:40:54.724Z,65.800003
2018-10-18T14:45:57.137Z,67.199997
2018-10-18T14:50:59.492Z,67.699997
2018-10-18T14:56:01.671Z,67.400002
2018-10-18T15:01:03.868Z,66.900002
2018-10-18T15:06:06.339Z,65.900002
2018-10-18T15:11:08.517Z,66.699997
2018-10-18T15:16:10.708Z,66.099998
2018-10-18T15:21:14.558Z,65.099998
2018-10-18T15:26:15.386Z,65.699997
2018-10-18T15:31:17.686Z,65.800003
2018-10-18T15:36:19.938Z,67.300003
2018-10-18T15:41:23.343Z,66.199997
2018-10-18T15:46:25.915Z,66.900002
2018-10-18T15:51:26.756Z,66.5
2018-10-18T15:56:29.267Z,67.300003
2018-10-18T16:01:31.382Z,67.400002
2018-10-18T16:06:33.725Z,67.5
2018-10-18T16:11:36.037Z,67.900002
2018-10-18T16:16:38.279Z,67.199997
2018-10-18T16:21:40.599Z,68.5
2018-10-18T16:26:42.916Z,68.699997
2018-10-18T16:31:45.192Z,69.5
2018-10-18T16:36:47.482Z,69.400002
2018-10-18T16:41:49.914Z,69.099998
2018-10-18T16:46:52.166Z,70
2018-10-18T16:51:54.373Z,70.099998
2018-10-18T16:56:56.706Z,70.800003
2018-10-18T17:01:59.097Z,69.599998
2018-10-18T17:07:01.327Z,69.5
2018-10-18T17:12:03.602Z,69.699997
2018-10-18T17:17:06.903Z,70.5
2018-10-18T17:22:09.892Z,71
2018-10-18T17:27:10.603Z,70.800003
2018-10-18T17:32:12.825Z,70.400002
2018-10-18T17:37:15.031Z,70.199997
2018-10-18T17:42:17.360Z,70.199997
2018-10-18T17:47:19.635Z,70.300003
2018-10-18T17:52:22.024Z,69.699997
2018-10-18T17:57:24.204Z,70.300003
2018-10-18T18:02:26.419Z,70.400002
2018-10-18T18:07:28.732Z,70.099998
2018-10-18T18:12:31.081Z,70.5
2018-10-18T18:17:33.279Z,70.800003
2018-10-18T18:22:35.701Z,70.699997
2018-10-18T18:27:38.032Z,71.199997
2018-10-18T18:37:42.609Z,70.900002
2018-10-18T18:42:44.890Z,71
2018-10-18T18:47:47.098Z,70.900002
2018-10-18T18:52:49.486Z,71.199997
2018-10-18T18:57:51.802Z,71.099998
2018-10-18T19:02:54.014Z,71
2018-10-18T19:07:56.256Z,71.199997
2018-10-18T19:12:58.534Z,70.900002
2018-10-18T19:18:00.810Z,71.199997
2018-10-18T19:23:03.210Z,71
2018-10-18T19:28:05.434Z,70.599998
2018-10-18T19:33:07.712Z,70.699997
2018-10-18T19:38:10.100Z,70.699997
2018-10-18T19:43:12.541Z,71.099998
2018-10-18T19:48:14.597Z,71.400002
2018-10-18T19:53:16.874Z,70.800003
2018-10-18T19:58:19.280Z,71.099998
2018-10-18T20:03:21.530Z,71.300003
2018-10-18T20:08:23.942Z,71.300003
2018-10-18T20:13:26.226Z,71.400002
2018-10-18T20:18:28.416Z,71.400002
2018-10-18T20:23:30.661Z,71.400002
2018-10-18T20:28:32.991Z,71.699997
2018-10-18T20:33:35.432Z,72.099998
2018-10-18T20:38:37.592Z,72
2018-10-18T20:43:39.891Z,72.099998
2018-10-18T20:48:42.246Z,72.199997
2018-10-18T20:53:44.436Z,72.300003
2018-10-18T20:58:46.830Z,72.699997
2018-10-18T21:03:49.067Z,72.300003
2018-10-18T21:08:51.342Z,72.300003
2018-10-18T21:13:53.638Z,71.900002
2018-10-18T21:18:55.952Z,72.199997
2018-10-18T21:23:58.442Z,72
2018-10-18T21:34:02.773Z,72.199997
2018-10-18T21:39:05.048Z,72.300003
2018-10-18T21:44:07.572Z,72.199997
2018-10-18T21:49:09.668Z,72.699997
2018-10-18T21:54:12.138Z,72.5
2018-10-18T21:59:14.369Z,72.300003
2018-10-18T22:04:16.507Z,72
2018-10-18T22:09:18.889Z,72.400002
2018-10-18T22:14:21.207Z,72.400002
2018-10-18T22:19:23.441Z,72.900002
2018-10-18T22:29:27.971Z,74.099998
2018-10-18T22:34:30.349Z,74.400002
2018-10-18T22:39:32.686Z,74.599998
2018-10-18T22:44:34.926Z,75.099998
2018-10-18T22:49:37.198Z,75.099998
2018-10-18T22:54:39.589Z,75.199997
2018-10-18T22:59:41.894Z,75.5
2018-10-18T23:04:44.137Z,75.699997
2018-10-18T23:09:46.526Z,76.099998
2018-10-18T23:14:48.643Z,76
2018-10-18T23:19:51.022Z,75.900002
2018-10-18T23:24:53.332Z,76.199997
2018-10-18T23:29:55.648Z,76.400002
2018-10-18T23:34:57.895Z,76.800003
2018-10-18T23:40:00.256Z,77
2018-10-18T23:45:02.564Z,77.699997
2018-10-18T23:50:04.710Z,78
2018-10-18T23:55:07.185Z,78.599998
